sensor_id;sensor_type;location;lat;lon;timestamp;temperature;humidity
79016;DHT22;72726;44.842;37.556;2023-10-09T00:00:17;9.33;88.99
79016;DHT22;72726;44.842;37.556;2023-10-09T00:01:51;9.33;88.99
79016;DHT22;72726;44.842;37.556;2023-10-09T00:02:53;9.35;89.00
79016;DHT22;72726;44.842;37.556;2023-10-09T00:03:55;9.33;88.97
79016;DHT22;72726;44.842;37.556;2023-10-09T00:04:56;9.38;88.82
79016;DHT22;72726;44.842;37.556;2023-10-09T00:05:58;9.40;88.86
79016;DHT22;72726;44.842;37.556;2023-10-09T00:06:59;9.40;88.85
79016;DHT22;72726;44.842;37.556;2023-10-09T00:08:00;9.42;88.72
79016;DHT22;72726;44.842;37.556;2023-10-09T00:09:05;9.43;88.68
79016;DHT22;72726;44.842;37.556;2023-10-09T00:10:31;9.43;88.72
79016;DHT22;72726;44.842;37.556;2023-10-09T00:11:52;9.46;88.63
79016;DHT22;72726;44.842;37.556;2023-10-09T00:12:58;9.49;88.21
79016;DHT22;72726;44.842;37.556;2023-10-09T00:13:59;9.50;88.30
79016;DHT22;72726;44.842;37.556;2023-10-09T00:15:01;9.51;88.22
79016;DHT22;72726;44.842;37.556;2023-10-09T00:16:20;9.54;88.16
79016;DHT22;72726;44.842;37.556;2023-10-09T00:17:44;9.54;88.13
79016;DHT22;72726;44.842;37.556;2023-10-09T00:18:50;9.54;87.85
79016;DHT22;72726;44.842;37.556;2023-10-09T00:19:51;9.54;87.86
79016;DHT22;72726;44.842;37.556;2023-10-09T00:20:53;9.53;87.83
79016;DHT22;72726;44.842;37.556;2023-10-09T00:21:56;9.54;87.51
79016;DHT22;72726;44.842;37.556;2023-10-09T00:22:59;9.57;87.60
79016;DHT22;72726;44.842;37.556;2023-10-09T00:24:00;9.58;87.77
79016;DHT22;72726;44.842;37.556;2023-10-09T00:25:08;9.61;87.83
79016;DHT22;72726;44.842;37.556;2023-10-09T00:26:12;9.67;88.03
79016;DHT22;72726;44.842;37.556;2023-10-09T00:27:25;9.67;87.88
79016;DHT22;72726;44.842;37.556;2023-10-09T00:28:32;9.66;87.83
79016;DHT22;72726;44.842;37.556;2023-10-09T00:29:35;9.70;87.95
79016;DHT22;72726;44.842;37.556;2023-10-09T00:30:43;9.73;87.83
79016;DHT22;72726;44.842;37.556;2023-10-09T00:31:44;9.77;87.82
79016;DHT22;72726;44.842;37.556;2023-10-09T00:32:51;9.75;87.68
79016;DHT22;72726;44.842;37.556;2023-10-09T00:34:08;9.77;87.39
79016;DHT22;72726;44.842;37.556;2023-10-09T00:35:15;9.75;87.51
79016;DHT22;72726;44.842;37.556;2023-10-09T00:36:35;9.74;87.13
79016;DHT22;72726;44.842;37.556;2023-10-09T00:37:50;9.74;86.91
79016;DHT22;72726;44.842;37.556;2023-10-09T00:38:55;9.70;86.76
79016;DHT22;72726;44.842;37.556;2023-10-09T00:40:00;9.67;86.65
79016;DHT22;72726;44.842;37.556;2023-10-09T00:41:13;9.63;86.56
79016;DHT22;72726;44.842;37.556;2023-10-09T00:42:21;9.58;86.50
79016;DHT22;72726;44.842;37.556;2023-10-09T00:43:34;9.57;86.46
79016;DHT22;72726;44.842;37.556;2023-10-09T00:44:37;9.56;86.43
79016;DHT22;72726;44.842;37.556;2023-10-09T00:45:43;9.56;86.45
79016;DHT22;72726;44.842;37.556;2023-10-09T00:46:45;9.54;86.33
79016;DHT22;72726;44.842;37.556;2023-10-09T00:47:48;9.51;85.95
79016;DHT22;72726;44.842;37.556;2023-10-09T00:48:55;9.49;86.01
79016;DHT22;72726;44.842;37.556;2023-10-09T00:50:07;9.49;86.08
79016;DHT22;72726;44.842;37.556;2023-10-09T00:51:22;9.47;85.90
79016;DHT22;72726;44.842;37.556;2023-10-09T00:52:34;9.51;86.15
79016;DHT22;72726;44.842;37.556;2023-10-09T00:54:07;9.47;85.45
79016;DHT22;72726;44.842;37.556;2023-10-09T00:55:16;9.49;85.12
79016;DHT22;72726;44.842;37.556;2023-10-09T00:56:22;9.49;85.11
79016;DHT22;72726;44.842;37.556;2023-10-09T00:57:28;9.47;84.94
79016;DHT22;72726;44.842;37.556;2023-10-09T00:58:32;9.46;84.92
79016;DHT22;72726;44.842;37.556;2023-10-09T00:59:37;9.40;85.13
79016;DHT22;72726;44.842;37.556;2023-10-09T01:00:42;9.40;85.24
79016;DHT22;72726;44.842;37.556;2023-10-09T01:01:46;9.38;85.29
79016;DHT22;72726;44.842;37.556;2023-10-09T01:03:05;9.39;85.13
79016;DHT22;72726;44.842;37.556;2023-10-09T01:04:18;9.39;84.88
79016;DHT22;72726;44.842;37.556;2023-10-09T01:05:21;9.36;84.65
79016;DHT22;72726;44.842;37.556;2023-10-09T01:06:27;9.35;84.94
79016;DHT22;72726;44.842;37.556;2023-10-09T01:07:29;9.36;84.63
79016;DHT22;72726;44.842;37.556;2023-10-09T01:08:32;9.38;84.57
79016;DHT22;72726;44.842;37.556;2023-10-09T01:09:43;9.36;84.38
79016;DHT22;72726;44.842;37.556;2023-10-09T01:10:46;9.39;84.66
79016;DHT22;72726;44.842;37.556;2023-10-09T01:11:53;9.36;84.69
79016;DHT22;72726;44.842;37.556;2023-10-09T01:13:00;9.39;84.48
79016;DHT22;72726;44.842;37.556;2023-10-09T01:14:02;9.40;84.73
79016;DHT22;72726;44.842;37.556;2023-10-09T01:15:06;9.40;84.53
79016;DHT22;72726;44.842;37.556;2023-10-09T01:16:08;9.43;84.40
79016;DHT22;72726;44.842;37.556;2023-10-09T01:17:17;9.43;84.46
79016;DHT22;72726;44.842;37.556;2023-10-09T01:18:30;9.44;84.46
79016;DHT22;72726;44.842;37.556;2023-10-09T01:19:37;9.44;84.49
79016;DHT22;72726;44.842;37.556;2023-10-09T01:20:38;9.43;84.31
79016;DHT22;72726;44.842;37.556;2023-10-09T01:21:42;9.40;84.32
79016;DHT22;72726;44.842;37.556;2023-10-09T01:22:44;9.44;84.42
79016;DHT22;72726;44.842;37.556;2023-10-09T01:23:46;9.43;84.45
79016;DHT22;72726;44.842;37.556;2023-10-09T01:25:13;9.40;84.38
79016;DHT22;72726;44.842;37.556;2023-10-09T01:26:14;9.39;84.46
79016;DHT22;72726;44.842;37.556;2023-10-09T01:27:15;9.38;84.53
79016;DHT22;72726;44.842;37.556;2023-10-09T01:28:16;9.42;84.34
79016;DHT22;72726;44.842;37.556;2023-10-09T01:29:20;9.42;84.37
79016;DHT22;72726;44.842;37.556;2023-10-09T01:30:22;9.42;84.25
79016;DHT22;72726;44.842;37.556;2023-10-09T01:31:24;9.39;83.96
79016;DHT22;72726;44.842;37.556;2023-10-09T01:32:27;9.42;83.93
79016;DHT22;72726;44.842;37.556;2023-10-09T01:33:29;9.43;83.99
79016;DHT22;72726;44.842;37.556;2023-10-09T01:34:33;9.43;84.34
79016;DHT22;72726;44.842;37.556;2023-10-09T01:35:43;9.46;84.37
79016;DHT22;72726;44.842;37.556;2023-10-09T01:36:52;9.44;84.32
79016;DHT22;72726;44.842;37.556;2023-10-09T01:37:56;9.46;83.97
79016;DHT22;72726;44.842;37.556;2023-10-09T01:39:01;9.43;83.57
79016;DHT22;72726;44.842;37.556;2023-10-09T01:40:28;9.40;83.34
79016;DHT22;72726;44.842;37.556;2023-10-09T01:41:38;9.39;83.66
79016;DHT22;72726;44.842;37.556;2023-10-09T01:42:47;9.38;83.83
79016;DHT22;72726;44.842;37.556;2023-10-09T01:43:48;9.35;83.73
79016;DHT22;72726;44.842;37.556;2023-10-09T01:44:52;9.36;83.90
79016;DHT22;72726;44.842;37.556;2023-10-09T01:45:53;9.39;83.98
79016;DHT22;72726;44.842;37.556;2023-10-09T01:46:54;9.39;83.76
79016;DHT22;72726;44.842;37.556;2023-10-09T01:47:57;9.35;83.31
79016;DHT22;72726;44.842;37.556;2023-10-09T01:48:59;9.35;83.40
79016;DHT22;72726;44.842;37.556;2023-10-09T01:50:09;9.33;83.49
79016;DHT22;72726;44.842;37.556;2023-10-09T01:51:21;9.29;83.63
79016;DHT22;72726;44.842;37.556;2023-10-09T01:52:22;9.28;83.47
79016;DHT22;72726;44.842;37.556;2023-10-09T01:53:24;9.25;83.73
79016;DHT22;72726;44.842;37.556;2023-10-09T01:54:30;9.25;84.15
79016;DHT22;72726;44.842;37.556;2023-10-09T01:55:41;9.22;84.30
79016;DHT22;72726;44.842;37.556;2023-10-09T01:56:46;9.21;84.00
79016;DHT22;72726;44.842;37.556;2023-10-09T01:57:53;9.16;84.28
79016;DHT22;72726;44.842;37.556;2023-10-09T01:58:54;9.16;83.84
79016;DHT22;72726;44.842;37.556;2023-10-09T01:59:58;9.15;83.85
79016;DHT22;72726;44.842;37.556;2023-10-09T02:01:00;9.14;83.83
79016;DHT22;72726;44.842;37.556;2023-10-09T02:02:06;9.15;83.48
79016;DHT22;72726;44.842;37.556;2023-10-09T02:03:26;9.11;82.86
79016;DHT22;72726;44.842;37.556;2023-10-09T02:04:29;9.11;83.65
79016;DHT22;72726;44.842;37.556;2023-10-09T02:05:31;9.12;83.60
79016;DHT22;72726;44.842;37.556;2023-10-09T02:06:34;9.10;82.90
79016;DHT22;72726;44.842;37.556;2023-10-09T02:07:38;9.11;82.79
79016;DHT22;72726;44.842;37.556;2023-10-09T02:08:45;9.15;83.39
79016;DHT22;72726;44.842;37.556;2023-10-09T02:09:50;9.14;82.98
79016;DHT22;72726;44.842;37.556;2023-10-09T02:10:51;9.14;82.72
79016;DHT22;72726;44.842;37.556;2023-10-09T02:11:56;9.15;82.79
79016;DHT22;72726;44.842;37.556;2023-10-09T02:13:03;9.15;82.53
79016;DHT22;72726;44.842;37.556;2023-10-09T02:14:07;9.14;82.15
79016;DHT22;72726;44.842;37.556;2023-10-09T02:15:21;9.12;82.50
79016;DHT22;72726;44.842;37.556;2023-10-09T02:16:40;9.12;82.31
79016;DHT22;72726;44.842;37.556;2023-10-09T02:17:42;9.14;82.26
79016;DHT22;72726;44.842;37.556;2023-10-09T02:18:52;9.15;81.88
79016;DHT22;72726;44.842;37.556;2023-10-09T02:19:54;9.15;82.15
79016;DHT22;72726;44.842;37.556;2023-10-09T02:22:05;9.14;82.40
79016;DHT22;72726;44.842;37.556;2023-10-09T02:23:14;9.10;82.45
79016;DHT22;72726;44.842;37.556;2023-10-09T02:24:21;9.10;82.03
79016;DHT22;72726;44.842;37.556;2023-10-09T02:25:41;9.11;81.79
79016;DHT22;72726;44.842;37.556;2023-10-09T02:26:45;9.11;82.00
79016;DHT22;72726;44.842;37.556;2023-10-09T02:27:54;9.10;81.80
79016;DHT22;72726;44.842;37.556;2023-10-09T02:29:00;9.10;81.86
79016;DHT22;72726;44.842;37.556;2023-10-09T02:30:06;9.10;81.93
79016;DHT22;72726;44.842;37.556;2023-10-09T02:31:16;9.08;81.88
79016;DHT22;72726;44.842;37.556;2023-10-09T02:32:23;9.07;81.80
79016;DHT22;72726;44.842;37.556;2023-10-09T02:33:29;9.07;81.91
79016;DHT22;72726;44.842;37.556;2023-10-09T02:34:31;9.02;82.04
79016;DHT22;72726;44.842;37.556;2023-10-09T02:35:39;9.07;82.16
79016;DHT22;72726;44.842;37.556;2023-10-09T02:36:43;9.05;82.33
79016;DHT22;72726;44.842;37.556;2023-10-09T02:37:49;9.07;82.26
79016;DHT22;72726;44.842;37.556;2023-10-09T02:38:50;9.07;82.34
79016;DHT22;72726;44.842;37.556;2023-10-09T02:39:54;9.10;82.69
79016;DHT22;72726;44.842;37.556;2023-10-09T02:40:55;9.12;82.36
79016;DHT22;72726;44.842;37.556;2023-10-09T02:42:03;9.14;81.80
79016;DHT22;72726;44.842;37.556;2023-10-09T02:43:13;9.16;81.49
79016;DHT22;72726;44.842;37.556;2023-10-09T02:44:18;9.19;81.48
79016;DHT22;72726;44.842;37.556;2023-10-09T02:45:25;9.19;81.51
79016;DHT22;72726;44.842;37.556;2023-10-09T02:46:33;9.18;81.30
79016;DHT22;72726;44.842;37.556;2023-10-09T02:47:35;9.15;81.85
79016;DHT22;72726;44.842;37.556;2023-10-09T02:48:40;9.11;81.85
79016;DHT22;72726;44.842;37.556;2023-10-09T02:49:49;9.04;81.78
79016;DHT22;72726;44.842;37.556;2023-10-09T02:50:51;9.00;82.54
79016;DHT22;72726;44.842;37.556;2023-10-09T02:51:52;8.95;82.30
79016;DHT22;72726;44.842;37.556;2023-10-09T02:52:56;8.95;82.31
79016;DHT22;72726;44.842;37.556;2023-10-09T02:54:09;8.91;82.89
79016;DHT22;72726;44.842;37.556;2023-10-09T02:55:20;8.87;82.89
79016;DHT22;72726;44.842;37.556;2023-10-09T02:56:28;8.87;83.40
79016;DHT22;72726;44.842;37.556;2023-10-09T02:57:39;8.84;83.70
79016;DHT22;72726;44.842;37.556;2023-10-09T02:58:42;8.87;83.84
79016;DHT22;72726;44.842;37.556;2023-10-09T02:59:44;8.81;83.70
79016;DHT22;72726;44.842;37.556;2023-10-09T03:00:45;8.81;84.08
79016;DHT22;72726;44.842;37.556;2023-10-09T03:01:48;8.81;84.22
79016;DHT22;72726;44.842;37.556;2023-10-09T03:02:49;8.81;84.21
79016;DHT22;72726;44.842;37.556;2023-10-09T03:03:51;8.78;84.44
79016;DHT22;72726;44.842;37.556;2023-10-09T03:04:52;8.80;84.93
79016;DHT22;72726;44.842;37.556;2023-10-09T03:05:56;8.80;85.05
79016;DHT22;72726;44.842;37.556;2023-10-09T03:06:58;8.75;84.89
79016;DHT22;72726;44.842;37.556;2023-10-09T03:07:59;8.77;84.99
79016;DHT22;72726;44.842;37.556;2023-10-09T03:09:01;8.78;84.60
79016;DHT22;72726;44.842;37.556;2023-10-09T03:10:17;8.77;83.72
79016;DHT22;72726;44.842;37.556;2023-10-09T03:11:19;8.75;82.92
79016;DHT22;72726;44.842;37.556;2023-10-09T03:12:20;8.77;82.12
79016;DHT22;72726;44.842;37.556;2023-10-09T03:13:27;8.78;81.93
79016;DHT22;72726;44.842;37.556;2023-10-09T03:14:31;8.78;82.07
79016;DHT22;72726;44.842;37.556;2023-10-09T03:15:32;8.75;82.30
79016;DHT22;72726;44.842;37.556;2023-10-09T03:16:36;8.77;82.48
79016;DHT22;72726;44.842;37.556;2023-10-09T03:17:37;8.74;82.26
79016;DHT22;72726;44.842;37.556;2023-10-09T03:18:39;8.75;82.29
79016;DHT22;72726;44.842;37.556;2023-10-09T03:19:41;8.73;82.39
79016;DHT22;72726;44.842;37.556;2023-10-09T03:20:45;8.71;82.49
79016;DHT22;72726;44.842;37.556;2023-10-09T03:21:47;8.73;82.53
79016;DHT22;72726;44.842;37.556;2023-10-09T03:22:49;8.70;82.69
79016;DHT22;72726;44.842;37.556;2023-10-09T03:23:50;8.68;83.18
79016;DHT22;72726;44.842;37.556;2023-10-09T03:24:52;8.67;83.16
79016;DHT22;72726;44.842;37.556;2023-10-09T03:25:53;8.67;83.09
79016;DHT22;72726;44.842;37.556;2023-10-09T03:26:55;8.66;83.25
79016;DHT22;72726;44.842;37.556;2023-10-09T03:27:59;8.64;83.09
79016;DHT22;72726;44.842;37.556;2023-10-09T03:29:01;8.70;83.21
79016;DHT22;72726;44.842;37.556;2023-10-09T03:30:02;8.70;83.10
79016;DHT22;72726;44.842;37.556;2023-10-09T03:31:06;8.70;83.23
79016;DHT22;72726;44.842;37.556;2023-10-09T03:32:07;8.73;83.22
79016;DHT22;72726;44.842;37.556;2023-10-09T03:33:09;8.73;83.34
79016;DHT22;72726;44.842;37.556;2023-10-09T03:34:12;8.74;83.29
79016;DHT22;72726;44.842;37.556;2023-10-09T03:35:13;8.75;83.22
79016;DHT22;72726;44.842;37.556;2023-10-09T03:36:24;8.77;83.09
79016;DHT22;72726;44.842;37.556;2023-10-09T03:37:27;8.78;83.05
79016;DHT22;72726;44.842;37.556;2023-10-09T03:38:36;8.83;83.04
79016;DHT22;72726;44.842;37.556;2023-10-09T03:39:39;8.84;83.04
79016;DHT22;72726;44.842;37.556;2023-10-09T03:40:43;8.88;82.90
79016;DHT22;72726;44.842;37.556;2023-10-09T03:41:45;8.88;83.07
79016;DHT22;72726;44.842;37.556;2023-10-09T03:42:48;8.91;83.05
79016;DHT22;72726;44.842;37.556;2023-10-09T03:43:49;8.95;82.97
79016;DHT22;72726;44.842;37.556;2023-10-09T03:44:51;8.97;82.89
79016;DHT22;72726;44.842;37.556;2023-10-09T03:45:58;8.98;82.86
79016;DHT22;72726;44.842;37.556;2023-10-09T03:47:00;9.01;82.82
79016;DHT22;72726;44.842;37.556;2023-10-09T03:48:03;9.05;82.78
79016;DHT22;72726;44.842;37.556;2023-10-09T03:49:12;9.02;82.74
79016;DHT22;72726;44.842;37.556;2023-10-09T03:50:16;9.04;82.81
79016;DHT22;72726;44.842;37.556;2023-10-09T03:51:37;9.08;82.80
79016;DHT22;72726;44.842;37.556;2023-10-09T03:52:40;9.07;82.74
79016;DHT22;72726;44.842;37.556;2023-10-09T03:53:41;9.07;82.77
79016;DHT22;72726;44.842;37.556;2023-10-09T03:54:43;9.08;82.67
79016;DHT22;72726;44.842;37.556;2023-10-09T03:55:48;9.05;82.92
79016;DHT22;72726;44.842;37.556;2023-10-09T03:56:49;9.04;82.85
79016;DHT22;72726;44.842;37.556;2023-10-09T03:57:50;9.02;82.97
79016;DHT22;72726;44.842;37.556;2023-10-09T03:58:52;9.05;82.88
79016;DHT22;72726;44.842;37.556;2023-10-09T03:59:54;9.04;82.92
79016;DHT22;72726;44.842;37.556;2023-10-09T04:00:56;9.04;82.93
79016;DHT22;72726;44.842;37.556;2023-10-09T04:01:57;9.07;82.54
79016;DHT22;72726;44.842;37.556;2023-10-09T04:02:59;9.11;82.51
79016;DHT22;72726;44.842;37.556;2023-10-09T04:04:00;9.16;82.28
79016;DHT22;72726;44.842;37.556;2023-10-09T04:05:01;9.16;82.35
79016;DHT22;72726;44.842;37.556;2023-10-09T04:06:03;9.21;82.17
79016;DHT22;72726;44.842;37.556;2023-10-09T04:07:05;9.23;81.85
79016;DHT22;72726;44.842;37.556;2023-10-09T04:08:11;9.26;81.99
79016;DHT22;72726;44.842;37.556;2023-10-09T04:09:20;9.28;81.73
79016;DHT22;72726;44.842;37.556;2023-10-09T04:10:23;9.32;81.76
79016;DHT22;72726;44.842;37.556;2023-10-09T04:11:43;9.35;81.83
79016;DHT22;72726;44.842;37.556;2023-10-09T04:12:45;9.36;81.19
79016;DHT22;72726;44.842;37.556;2023-10-09T04:13:50;9.44;81.18
79016;DHT22;72726;44.842;37.556;2023-10-09T04:14:53;9.46;81.26
79016;DHT22;72726;44.842;37.556;2023-10-09T04:16:06;9.46;81.54
79016;DHT22;72726;44.842;37.556;2023-10-09T04:17:30;9.47;81.65
79016;DHT22;72726;44.842;37.556;2023-10-09T04:18:34;9.47;81.83
79016;DHT22;72726;44.842;37.556;2023-10-09T04:19:39;9.46;81.58
79016;DHT22;72726;44.842;37.556;2023-10-09T04:20:49;9.46;81.56
79016;DHT22;72726;44.842;37.556;2023-10-09T04:22:09;9.42;81.88
79016;DHT22;72726;44.842;37.556;2023-10-09T04:23:26;9.43;82.26
79016;DHT22;72726;44.842;37.556;2023-10-09T04:24:54;9.42;82.33
79016;DHT22;72726;44.842;37.556;2023-10-09T04:25:56;9.42;82.67
79016;DHT22;72726;44.842;37.556;2023-10-09T04:27:01;9.39;83.13
79016;DHT22;72726;44.842;37.556;2023-10-09T04:28:04;9.40;82.99
79016;DHT22;72726;44.842;37.556;2023-10-09T04:29:16;9.42;83.11
79016;DHT22;72726;44.842;37.556;2023-10-09T04:30:39;9.43;83.73
79016;DHT22;72726;44.842;37.556;2023-10-09T04:31:57;9.47;84.23
79016;DHT22;72726;44.842;37.556;2023-10-09T04:33:01;9.49;83.80
79016;DHT22;72726;44.842;37.556;2023-10-09T04:34:12;9.51;83.81
79016;DHT22;72726;44.842;37.556;2023-10-09T04:35:23;9.58;83.80
79016;DHT22;72726;44.842;37.556;2023-10-09T04:36:26;9.61;83.53
79016;DHT22;72726;44.842;37.556;2023-10-09T04:37:36;9.66;82.51
79016;DHT22;72726;44.842;37.556;2023-10-09T04:38:38;9.74;82.05
79016;DHT22;72726;44.842;37.556;2023-10-09T04:39:42;9.77;81.73
79016;DHT22;72726;44.842;37.556;2023-10-09T04:41:05;9.87;81.09
79016;DHT22;72726;44.842;37.556;2023-10-09T04:42:06;9.88;81.14
79016;DHT22;72726;44.842;37.556;2023-10-09T04:43:20;9.93;81.31
79016;DHT22;72726;44.842;37.556;2023-10-09T04:44:21;9.98;81.02
79016;DHT22;72726;44.842;37.556;2023-10-09T04:45:30;9.99;80.29
79016;DHT22;72726;44.842;37.556;2023-10-09T04:46:50;10.05;79.49
79016;DHT22;72726;44.842;37.556;2023-10-09T04:48:10;10.08;79.34
79016;DHT22;72726;44.842;37.556;2023-10-09T04:49:12;10.11;79.72
79016;DHT22;72726;44.842;37.556;2023-10-09T04:50:39;10.12;79.11
79016;DHT22;72726;44.842;37.556;2023-10-09T04:52:06;10.16;78.80
79016;DHT22;72726;44.842;37.556;2023-10-09T04:53:19;10.23;78.79
79016;DHT22;72726;44.842;37.556;2023-10-09T04:54:24;10.22;78.07
79016;DHT22;72726;44.842;37.556;2023-10-09T04:55:40;10.25;78.08
79016;DHT22;72726;44.842;37.556;2023-10-09T04:56:45;10.28;78.04
79016;DHT22;72726;44.842;37.556;2023-10-09T04:57:56;10.30;77.94
79016;DHT22;72726;44.842;37.556;2023-10-09T04:59:10;10.38;77.25
79016;DHT22;72726;44.842;37.556;2023-10-09T05:00:19;10.40;78.22
79016;DHT22;72726;44.842;37.556;2023-10-09T05:01:23;10.40;77.23
79016;DHT22;72726;44.842;37.556;2023-10-09T05:02:37;10.45;75.87
79016;DHT22;72726;44.842;37.556;2023-10-09T05:03:40;10.47;77.21
79016;DHT22;72726;44.842;37.556;2023-10-09T05:04:41;10.53;76.57
79016;DHT22;72726;44.842;37.556;2023-10-09T05:05:43;10.53;77.83
79016;DHT22;72726;44.842;37.556;2023-10-09T05:06:46;10.56;77.68
79016;DHT22;72726;44.842;37.556;2023-10-09T05:07:56;10.61;76.94
79016;DHT22;72726;44.842;37.556;2023-10-09T05:08:58;10.63;76.52
79016;DHT22;72726;44.842;37.556;2023-10-09T05:10:09;10.63;77.31
79016;DHT22;72726;44.842;37.556;2023-10-09T05:11:18;10.68;76.21
79016;DHT22;72726;44.842;37.556;2023-10-09T05:12:56;10.74;77.19
79016;DHT22;72726;44.842;37.556;2023-10-09T05:13:58;10.80;77.69
79016;DHT22;72726;44.842;37.556;2023-10-09T05:15:13;10.84;76.87
79016;DHT22;72726;44.842;37.556;2023-10-09T05:16:17;10.93;78.18
79016;DHT22;72726;44.842;37.556;2023-10-09T05:17:27;10.93;77.25
79016;DHT22;72726;44.842;37.556;2023-10-09T05:18:29;10.97;77.47
79016;DHT22;72726;44.842;37.556;2023-10-09T05:19:37;11.00;77.42
79016;DHT22;72726;44.842;37.556;2023-10-09T05:20:55;11.02;78.06
79016;DHT22;72726;44.842;37.556;2023-10-09T05:21:59;11.07;78.74
79016;DHT22;72726;44.842;37.556;2023-10-09T05:23:06;11.11;78.49
79016;DHT22;72726;44.842;37.556;2023-10-09T05:24:36;11.18;77.83
79016;DHT22;72726;44.842;37.556;2023-10-09T05:25:46;11.19;76.81
79016;DHT22;72726;44.842;37.556;2023-10-09T05:26:59;11.22;75.59
79016;DHT22;72726;44.842;37.556;2023-10-09T05:28:19;11.29;76.76
79016;DHT22;72726;44.842;37.556;2023-10-09T05:29:31;11.36;76.93
79016;DHT22;72726;44.842;37.556;2023-10-09T05:30:33;11.38;77.00
79016;DHT22;72726;44.842;37.556;2023-10-09T05:31:36;11.42;78.34
79016;DHT22;72726;44.842;37.556;2023-10-09T05:32:57;11.47;75.76
79016;DHT22;72726;44.842;37.556;2023-10-09T05:34:21;11.55;77.69
79016;DHT22;72726;44.842;37.556;2023-10-09T05:35:25;11.57;75.64
79016;DHT22;72726;44.842;37.556;2023-10-09T05:36:46;11.60;73.68
79016;DHT22;72726;44.842;37.556;2023-10-09T05:37:49;11.63;74.76
79016;DHT22;72726;44.842;37.556;2023-10-09T05:39:02;11.66;73.74
79016;DHT22;72726;44.842;37.556;2023-10-09T05:40:23;11.73;73.49
79016;DHT22;72726;44.842;37.556;2023-10-09T05:41:25;11.74;71.42
79016;DHT22;72726;44.842;37.556;2023-10-09T05:42:47;11.76;70.39
79016;DHT22;72726;44.842;37.556;2023-10-09T05:43:59;11.77;70.59
79016;DHT22;72726;44.842;37.556;2023-10-09T05:45:21;11.77;71.37
79016;DHT22;72726;44.842;37.556;2023-10-09T05:46:51;11.81;70.87
79016;DHT22;72726;44.842;37.556;2023-10-09T05:48:12;11.83;70.31
79016;DHT22;72726;44.842;37.556;2023-10-09T05:49:14;11.80;70.01
79016;DHT22;72726;44.842;37.556;2023-10-09T05:50:27;11.80;70.38
79016;DHT22;72726;44.842;37.556;2023-10-09T05:51:29;11.81;69.65
79016;DHT22;72726;44.842;37.556;2023-10-09T05:52:42;11.81;69.50
79016;DHT22;72726;44.842;37.556;2023-10-09T05:53:53;11.83;69.81
79016;DHT22;72726;44.842;37.556;2023-10-09T05:55:24;11.83;69.61
79016;DHT22;72726;44.842;37.556;2023-10-09T05:56:26;11.85;68.40
79016;DHT22;72726;44.842;37.556;2023-10-09T05:57:33;11.88;65.75
79016;DHT22;72726;44.842;37.556;2023-10-09T05:58:53;11.91;67.71
79016;DHT22;72726;44.842;37.556;2023-10-09T06:00:13;11.93;68.04
79016;DHT22;72726;44.842;37.556;2023-10-09T06:01:34;11.94;67.58
79016;DHT22;72726;44.842;37.556;2023-10-09T06:02:53;11.95;66.13
79016;DHT22;72726;44.842;37.556;2023-10-09T06:04:13;11.97;66.94
79016;DHT22;72726;44.842;37.556;2023-10-09T06:05:19;12.01;68.40
79016;DHT22;72726;44.842;37.556;2023-10-09T06:06:44;12.08;66.55
79016;DHT22;72726;44.842;37.556;2023-10-09T06:07:46;12.12;66.56
79016;DHT22;72726;44.842;37.556;2023-10-09T06:09:15;12.15;63.11
79016;DHT22;72726;44.842;37.556;2023-10-09T06:10:16;12.20;63.97
79016;DHT22;72726;44.842;37.556;2023-10-09T06:11:38;12.24;61.04
79016;DHT22;72726;44.842;37.556;2023-10-09T06:12:40;12.25;60.22
79016;DHT22;72726;44.842;37.556;2023-10-09T06:13:44;12.29;60.53
79016;DHT22;72726;44.842;37.556;2023-10-09T06:14:48;12.31;59.14
79016;DHT22;72726;44.842;37.556;2023-10-09T06:15:59;12.35;56.38
79016;DHT22;72726;44.842;37.556;2023-10-09T06:17:18;12.35;56.21
79016;DHT22;72726;44.842;37.556;2023-10-09T06:18:28;12.35;55.96
79016;DHT22;72726;44.842;37.556;2023-10-09T06:19:35;12.35;55.40
79016;DHT22;72726;44.842;37.556;2023-10-09T06:20:44;12.35;52.67
79016;DHT22;72726;44.842;37.556;2023-10-09T06:22:10;12.36;52.95
79016;DHT22;72726;44.842;37.556;2023-10-09T06:23:41;12.39;55.37
79016;DHT22;72726;44.842;37.556;2023-10-09T06:25:09;12.39;55.31
79016;DHT22;72726;44.842;37.556;2023-10-09T06:26:12;12.42;53.11
79016;DHT22;72726;44.842;37.556;2023-10-09T06:27:24;12.43;52.07
79016;DHT22;72726;44.842;37.556;2023-10-09T06:28:31;12.42;48.72
79016;DHT22;72726;44.842;37.556;2023-10-09T06:29:37;12.40;49.70
79016;DHT22;72726;44.842;37.556;2023-10-09T06:30:59;12.42;51.50
79016;DHT22;72726;44.842;37.556;2023-10-09T06:32:20;12.43;51.93
79016;DHT22;72726;44.842;37.556;2023-10-09T06:33:27;12.45;50.70
79016;DHT22;72726;44.842;37.556;2023-10-09T06:34:51;12.48;51.34
79016;DHT22;72726;44.842;37.556;2023-10-09T06:35:53;12.46;50.26
79016;DHT22;72726;44.842;37.556;2023-10-09T06:36:57;12.50;51.42
79016;DHT22;72726;44.842;37.556;2023-10-09T06:38:04;12.48;50.78
79016;DHT22;72726;44.842;37.556;2023-10-09T06:39:24;12.45;52.58
79016;DHT22;72726;44.842;37.556;2023-10-09T06:40:47;12.42;52.51
79016;DHT22;72726;44.842;37.556;2023-10-09T06:42:07;12.38;52.50
79016;DHT22;72726;44.842;37.556;2023-10-09T06:43:31;12.33;52.09
79016;DHT22;72726;44.842;37.556;2023-10-09T06:44:35;12.35;50.74
79016;DHT22;72726;44.842;37.556;2023-10-09T06:45:57;12.32;52.09
79016;DHT22;72726;44.842;37.556;2023-10-09T06:46:59;12.39;51.51
79016;DHT22;72726;44.842;37.556;2023-10-09T06:48:09;12.38;49.86
79016;DHT22;72726;44.842;37.556;2023-10-09T06:49:29;12.38;51.06
79016;DHT22;72726;44.842;37.556;2023-10-09T06:50:30;12.42;51.98
79016;DHT22;72726;44.842;37.556;2023-10-09T06:51:56;12.50;52.35
79016;DHT22;72726;44.842;37.556;2023-10-09T06:53:14;12.56;49.77
79016;DHT22;72726;44.842;37.556;2023-10-09T06:54:26;12.57;48.53
79016;DHT22;72726;44.842;37.556;2023-10-09T06:55:28;12.63;49.34
79016;DHT22;72726;44.842;37.556;2023-10-09T06:56:38;12.63;48.87
79016;DHT22;72726;44.842;37.556;2023-10-09T06:57:39;12.64;46.94
79016;DHT22;72726;44.842;37.556;2023-10-09T06:58:50;12.66;47.30
79016;DHT22;72726;44.842;37.556;2023-10-09T06:59:55;12.67;48.28
79016;DHT22;72726;44.842;37.556;2023-10-09T07:01:15;12.73;48.38
79016;DHT22;72726;44.842;37.556;2023-10-09T07:02:28;12.77;48.11
79016;DHT22;72726;44.842;37.556;2023-10-09T07:03:32;12.81;47.84
79016;DHT22;72726;44.842;37.556;2023-10-09T07:04:37;12.81;45.52
79016;DHT22;72726;44.842;37.556;2023-10-09T07:05:40;12.80;46.23
79016;DHT22;72726;44.842;37.556;2023-10-09T07:07:06;12.76;45.69
79016;DHT22;72726;44.842;37.556;2023-10-09T07:08:14;12.75;46.72
79016;DHT22;72726;44.842;37.556;2023-10-09T07:09:33;12.75;46.88